Concordia, Missouri
Current Conditions -  °F | °C
As of 9:58 PM on Friday 19 Dec 2014 (Local Time) from KSZL Reporting Station
Haze Haze  
Wind Chill: 36°   Ceiling: 200
Heat Index: 36°   Visibility: 5mi
Dew Point: 35°   Wind: 3mph
Humidity: 96%   Direction: 110°ESE
Pressure: 30.21"   Gusts: NA
Location:  38.98°N, 93.57°W
Report Text: KSZL 200358Z AUTO 11003KT 5SM BR BKN002 OVC006 02/02 A3021 RMK AO2 CIG 002V007 BKN V SCT SLP241 T00210015 $
Loading
Personal Weather Stations






























Interactive Weather Map New forecast layout! Learn more

10-Day Weather Forecast

Advertisements
Track Severe Weather on mobile